createdAt,value
2023-04-27T00:00:46.858Z,100877.59
2023-04-27T00:03:49.151Z,100880.44
2023-04-27T00:06:51.529Z,100873.19
2023-04-27T00:09:53.021Z,100875.03
2023-04-27T00:12:54.508Z,100879.75
2023-04-27T00:15:56.143Z,100875.19
2023-04-27T00:18:57.668Z,100878.03
2023-04-27T00:22:00.056Z,100873.63
2023-04-27T00:25:01.549Z,100878.88
2023-04-27T00:28:03.054Z,100877.19
2023-04-27T00:31:05.868Z,100881.75
2023-04-27T00:34:07.422Z,100880.91
2023-04-27T00:37:08.950Z,100872.78
2023-04-27T00:40:10.798Z,100881.03
2023-04-27T00:43:12.413Z,100871.06
2023-04-27T00:46:15.274Z,100875.63
2023-04-27T00:49:16.839Z,100873.94
2023-04-27T00:52:18.493Z,100879.34
2023-04-27T00:55:20.100Z,100880.34
2023-04-27T00:58:22.955Z,100882.19
2023-04-27T01:01:24.612Z,100883.22
2023-04-27T01:04:26.862Z,100877.78
2023-04-27T01:07:29.486Z,100883.22
2023-04-27T01:10:32.652Z,100883.34
2023-04-27T01:13:34.198Z,100892.50
2023-04-27T01:16:37.230Z,100898.75
2023-04-27T01:19:40.195Z,100890.63
2023-04-27T01:22:41.796Z,100896.19
2023-04-27T01:25:43.856Z,100893.47
2023-04-27T01:28:45.752Z,100895.34
2023-04-27T01:31:47.335Z,100894.50
2023-04-27T01:34:50.178Z,100894.50
2023-04-27T01:37:51.795Z,100911.72
2023-04-27T01:40:55.394Z,100914.44
2023-04-27T01:43:56.912Z,100919.03
2023-04-27T01:46:58.473Z,100921.72
2023-04-27T01:50:00.008Z,100926.44
2023-04-27T01:53:01.578Z,100930.88
2023-04-27T01:56:03.827Z,100930.03
2023-04-27T01:59:07.884Z,100941.84
2023-04-27T02:02:11.302Z,100944.44
2023-04-27T02:05:12.875Z,100943.72
2023-04-27T02:08:14.540Z,100953.72
2023-04-27T02:11:16.112Z,100951.00
2023-04-27T02:14:17.819Z,100948.41
2023-04-27T02:17:21.662Z,100953.00
2023-04-27T02:20:23.161Z,100947.69
2023-04-27T02:23:24.683Z,100959.44
2023-04-27T02:26:29.425Z,100961.25
2023-04-27T02:29:32.134Z,100966.69
2023-04-27T02:32:34.471Z,100966.69
2023-04-27T02:35:36.110Z,100966.84
2023-04-27T02:38:37.671Z,100969.56
2023-04-27T02:41:39.176Z,100962.41
2023-04-27T02:44:40.693Z,100956.13
2023-04-27T02:47:42.239Z,100966.13
2023-04-27T02:50:44.560Z,100956.13
2023-04-27T02:53:46.066Z,100959.84
2023-04-27T02:56:47.624Z,100957.16
2023-04-27T02:59:49.090Z,100949.84
2023-04-27T03:02:51.001Z,100955.28
2023-04-27T03:05:52.661Z,100955.16
2023-04-27T03:08:54.246Z,100955.16
2023-04-27T03:11:55.803Z,100954.84
2023-04-27T03:14:57.430Z,100954.69
2023-04-27T03:17:59.289Z,100952.56
2023-04-27T03:21:11.928Z,100948.53
2023-04-27T03:24:13.447Z,100955.69
2023-04-27T03:27:15.078Z,100947.28
2023-04-27T03:30:17.333Z,100952.41
2023-04-27T03:33:18.825Z,100953.13
2023-04-27T03:36:20.817Z,100954.69
2023-04-27T03:39:22.452Z,100964.25
2023-04-27T03:42:24.024Z,100968.53
2023-04-27T03:45:26.170Z,100969.22
2023-04-27T03:48:27.766Z,100964.50
2023-04-27T03:51:33.005Z,100975.06
2023-04-27T03:54:34.554Z,100969.50
2023-04-27T03:57:36.155Z,100975.63
2023-04-27T04:00:38.464Z,100967.34
2023-04-27T04:03:40.328Z,100961.06
2023-04-27T04:06:43.253Z,100966.50
2023-04-27T04:09:46.264Z,100966.34
2023-04-27T04:12:47.854Z,100985.47
2023-04-27T04:15:49.790Z,100979.06
2023-04-27T04:18:51.312Z,100976.34
2023-04-27T04:21:54.525Z,100988.06
2023-04-27T04:24:56.057Z,100990.91
2023-04-27T04:27:57.946Z,100990.06
2023-04-27T04:31:01.441Z,100994.63
2023-04-27T04:34:03.551Z,100992.22
2023-04-27T04:37:05.415Z,100993.91
2023-04-27T04:40:11.060Z,100986.91
2023-04-27T04:43:13.694Z,100999.47
2023-04-27T04:46:16.533Z,101000.63
2023-04-27T04:49:18.073Z,100999.03
2023-04-27T04:52:19.576Z,101003.63
2023-04-27T04:55:21.234Z,100998.06
2023-04-27T04:58:22.762Z,101000.78
2023-04-27T05:01:24.321Z,101001.63
2023-04-27T05:04:26.588Z,101002.47
2023-04-27T05:07:28.235Z,100999.63
2023-04-27T05:10:29.696Z,101005.78
2023-04-27T05:13:31.323Z,101014.59
2023-04-27T05:16:33.058Z,101012.59
2023-04-27T05:19:34.613Z,101017.03
2023-04-27T05:22:36.562Z,101023.16
2023-04-27T05:25:41.604Z,101020.44
2023-04-27T05:28:47.078Z,101028.34
2023-04-27T05:31:49.164Z,101030.19
2023-04-27T05:34:51.190Z,101029.34
2023-04-27T05:37:52.804Z,101020.22
2023-04-27T05:40:59.501Z,101020.03
2023-04-27T05:44:00.974Z,101022.75
2023-04-27T05:47:02.535Z,101024.50
2023-04-27T05:50:04.271Z,101033.47
2023-04-27T05:53:06.006Z,101038.06
2023-04-27T05:56:07.856Z,101044.47
2023-04-27T05:59:09.823Z,101039.88
2023-04-27T06:02:11.437Z,101049.88
2023-04-27T06:05:13.107Z,101056.47
2023-04-27T06:08:14.846Z,101045.59
2023-04-27T06:11:16.445Z,101048.44
2023-04-27T06:14:17.945Z,101051.31
2023-04-27T06:17:21.065Z,101053.16
2023-04-27T06:20:22.693Z,101056.84
2023-04-27T06:23:24.173Z,101053.47
2023-04-27T06:26:25.815Z,101065.16
2023-04-27T06:29:27.304Z,101062.56
2023-04-27T06:32:28.905Z,101066.13
2023-04-27T06:35:30.614Z,101071.72
2023-04-27T06:38:32.129Z,101069.16
2023-04-27T06:41:33.964Z,101069.31
2023-04-27T06:44:35.416Z,101074.72
2023-04-27T06:47:36.867Z,101072.16
2023-04-27T06:50:38.342Z,101081.13
2023-04-27T06:53:40.108Z,101078.59
2023-04-27T06:56:41.599Z,101078.72
2023-04-27T06:59:43.052Z,101071.59
2023-04-27T07:02:44.611Z,101069.84
2023-04-27T07:05:46.651Z,101073.41
2023-04-27T07:08:48.286Z,101073.59
2023-04-27T07:11:49.783Z,101062.00
2023-04-27T07:14:51.269Z,101067.44
2023-04-27T07:17:54.103Z,101069.13
2023-04-27T07:20:57.813Z,101067.16
2023-04-27T07:23:59.295Z,101069.72
2023-04-27T07:27:02.628Z,101074.13
2023-04-27T07:30:05.967Z,101081.97
2023-04-27T07:33:07.757Z,101087.16
2023-04-27T07:36:09.904Z,101086.97
2023-04-27T07:39:11.569Z,101085.00
2023-04-27T07:42:13.316Z,101084.88
2023-04-27T07:45:17.328Z,101082.00
2023-04-27T07:48:18.910Z,101088.25
2023-04-27T07:51:21.591Z,101081.72
2023-04-27T07:54:23.277Z,101083.47
2023-04-27T07:57:24.852Z,101090.59
2023-04-27T08:00:26.464Z,101089.44
2023-04-27T08:03:28.278Z,101082.16
2023-04-27T08:06:31.178Z,101072.88
2023-04-27T08:09:32.794Z,101077.44
2023-04-27T08:12:34.668Z,101080.03
2023-04-27T08:15:37.219Z,101080.75
2023-04-27T08:18:38.696Z,101083.47
2023-04-27T08:21:40.311Z,101077.88
2023-04-27T08:24:42.011Z,101077.00
2023-04-27T08:27:43.470Z,101074.31
2023-04-27T08:30:44.912Z,101068.88
2023-04-27T08:33:46.951Z,101069.72
2023-04-27T08:36:48.386Z,101073.28
2023-04-27T08:39:49.896Z,101072.31
2023-04-27T08:42:59.332Z,101068.56
2023-04-27T08:46:01.099Z,101067.72
2023-04-27T08:49:03.072Z,101070.44
2023-04-27T08:52:12.079Z,101073.88
2023-04-27T08:55:16.548Z,101071.28
2023-04-27T08:58:18.409Z,101068.56
2023-04-27T09:01:20.523Z,101063.03
2023-04-27T09:04:22.164Z,101067.59
2023-04-27T09:07:23.833Z,101069.44
2023-04-27T09:10:25.435Z,101064.88
2023-04-27T09:13:35.670Z,101067.44
2023-04-27T09:16:37.185Z,101070.16
2023-04-27T09:19:38.771Z,101072.84
2023-04-27T09:22:47.872Z,101070.88
2023-04-27T09:25:49.375Z,101080.03
2023-04-27T09:28:56.912Z,101070.00
2023-04-27T09:31:58.585Z,101068.28
2023-04-27T09:35:00.121Z,101062.00
2023-04-27T09:38:01.906Z,101063.03
2023-04-27T09:41:03.612Z,101063.75
2023-04-27T09:44:07.372Z,101059.16
2023-04-27T09:47:10.574Z,101054.59
2023-04-27T09:50:13.979Z,101052.88
2023-04-27T09:53:18.348Z,101048.31
2023-04-27T09:56:49.157Z,101036.44
2023-04-27T10:00:23.498Z,101041.19
2023-04-27T10:03:32.681Z,101040.16
2023-04-27T10:06:34.596Z,101037.31
2023-04-27T10:09:46.244Z,101049.47
2023-04-27T10:13:02.885Z,101045.19
2023-04-27T10:16:17.121Z,101049.31
2023-04-27T10:19:19.398Z,101046.31
2023-04-27T10:22:20.972Z,101036.03
2023-04-27T10:25:26.512Z,101039.19
2023-04-27T10:28:38.435Z,101039.19
2023-04-27T10:31:47.995Z,101032.47
2023-04-27T10:34:51.022Z,101034.19
2023-04-27T10:37:53.071Z,101031.19
2023-04-27T10:41:02.726Z,101036.31
2023-04-27T10:44:16.744Z,101039.38
2023-04-27T10:47:22.082Z,101033.38
2023-04-27T10:50:24.332Z,101037.59
2023-04-27T10:53:26.970Z,101031.19
2023-04-27T10:56:29.016Z,101027.03
2023-04-27T10:59:31.294Z,101028.00
2023-04-27T11:02:33.222Z,101033.50
2023-04-27T11:05:36.068Z,101021.38
2023-04-27T11:08:44.782Z,101023.53
2023-04-27T11:11:46.368Z,101019.56
2023-04-27T11:14:47.995Z,101021.97
2023-04-27T11:17:49.519Z,101021.00
2023-04-27T11:20:53.630Z,101017.00
2023-04-27T11:23:55.207Z,101010.34
2023-04-27T11:26:56.771Z,101022.22
2023-04-27T11:29:58.299Z,101018.81
2023-04-27T11:33:08.317Z,101016.31
2023-04-27T11:36:17.685Z,101014.72
2023-04-27T11:39:19.602Z,101018.03
2023-04-27T11:42:23.475Z,101015.75
2023-04-27T11:45:27.466Z,101020.75
2023-04-27T11:48:29.380Z,101013.31
2023-04-27T11:51:34.631Z,101016.47
2023-04-27T11:54:37.611Z,101001.78
2023-04-27T11:57:39.178Z,100996.94
2023-04-27T12:00:40.970Z,100999.50
2023-04-27T12:03:42.643Z,100993.81
2023-04-27T12:06:44.287Z,100999.91
2023-04-27T12:09:45.986Z,100995.22
2023-04-27T12:12:47.645Z,100992.50
2023-04-27T12:15:49.141Z,100996.78
2023-04-27T12:18:50.759Z,100992.22
2023-04-27T12:21:52.936Z,100991.06
2023-04-27T12:24:54.406Z,100988.25
2023-04-27T12:27:55.958Z,100989.94
2023-04-27T12:30:57.779Z,100984.38
2023-04-27T12:33:59.335Z,100988.97
2023-04-27T12:37:00.959Z,100979.81
2023-04-27T12:40:06.354Z,100977.81
2023-04-27T12:43:08.532Z,100985.81
2023-04-27T12:46:10.071Z,100979.38
2023-04-27T12:49:12.511Z,100981.81
2023-04-27T12:52:14.202Z,100982.66
2023-04-27T12:55:31.355Z,100976.25
2023-04-27T12:58:34.426Z,100975.25
2023-04-27T13:01:36.129Z,100981.50
2023-04-27T13:04:37.867Z,100975.09
2023-04-27T13:07:39.532Z,100974.09
2023-04-27T13:10:42.073Z,100973.25
2023-04-27T13:13:47.745Z,100975.81
2023-04-27T13:16:49.621Z,100975.81
2023-04-27T13:19:51.139Z,100972.22
2023-04-27T13:22:52.649Z,100972.22
2023-04-27T13:25:54.182Z,100978.53
2023-04-27T13:28:57.158Z,100971.25
2023-04-27T13:32:01.572Z,100981.09
2023-04-27T13:35:03.850Z,100975.66
2023-04-27T13:38:05.319Z,100969.50
2023-04-27T13:41:07.287Z,100974.81
2023-04-27T13:44:08.832Z,100973.78
2023-04-27T13:47:11.022Z,100974.81
2023-04-27T13:50:13.109Z,100975.53
2023-04-27T13:53:16.660Z,100966.53
2023-04-27T13:56:18.152Z,100968.38
2023-04-27T13:59:19.980Z,100969.25
2023-04-27T14:02:21.882Z,100970.09
2023-04-27T14:05:23.420Z,100963.84
2023-04-27T14:08:24.859Z,100964.81
2023-04-27T14:11:26.675Z,100958.53
2023-04-27T14:14:29.082Z,100955.81
2023-04-27T14:17:30.798Z,100948.69
2023-04-27T14:20:32.425Z,100952.25
2023-04-27T14:23:34.909Z,100944.25
2023-04-27T14:26:36.390Z,100938.00
2023-04-27T14:29:37.909Z,100932.56
2023-04-27T14:32:39.391Z,100939.00
2023-04-27T14:35:40.938Z,100939.00
2023-04-27T14:38:42.465Z,100937.16
2023-04-27T14:41:43.964Z,100930.69
2023-04-27T14:44:46.400Z,100918.59
2023-04-27T14:47:49.136Z,100920.03
2023-04-27T14:50:50.899Z,100921.75
2023-04-27T14:53:52.394Z,100916.34
2023-04-27T14:56:53.953Z,100911.50
2023-04-27T14:59:56.831Z,100914.06
2023-04-27T15:02:58.471Z,100913.91
2023-04-27T15:06:01.595Z,100923.47
2023-04-27T15:09:04.553Z,100922.03
2023-04-27T15:12:07.874Z,100917.47
2023-04-27T15:15:13.526Z,100910.91
2023-04-27T15:18:15.086Z,100901.06
2023-04-27T15:21:16.652Z,100906.19
2023-04-27T15:24:18.119Z,100907.03
2023-04-27T15:27:19.678Z,100906.34
2023-04-27T15:30:21.209Z,100910.22
2023-04-27T15:33:22.742Z,100906.63
2023-04-27T15:36:26.669Z,100904.63
2023-04-27T15:39:28.175Z,100906.34
2023-04-27T15:42:29.866Z,100905.63
2023-04-27T15:45:31.956Z,100897.50
2023-04-27T15:48:33.651Z,100900.34
2023-04-27T15:51:35.174Z,100900.50
2023-04-27T15:54:37.157Z,100891.66
2023-04-27T15:57:38.981Z,100893.53
2023-04-27T16:00:40.497Z,100888.78
2023-04-27T16:03:42.133Z,100881.38
2023-04-27T16:06:43.715Z,100884.66
2023-04-27T16:09:45.244Z,100881.66
2023-04-27T16:12:46.764Z,100876.06
2023-04-27T16:15:48.232Z,100874.94
2023-04-27T16:18:49.738Z,100871.06
2023-04-27T16:21:51.355Z,100867.22
2023-04-27T16:24:52.832Z,100862.38
2023-04-27T16:27:54.351Z,100871.22
2023-04-27T16:30:55.996Z,100866.63
2023-04-27T16:33:57.550Z,100860.06
2023-04-27T16:36:59.029Z,100854.47
2023-04-27T16:40:03.816Z,100859.75
2023-04-27T16:43:05.370Z,100863.19
2023-04-27T16:46:09.656Z,100867.31
2023-04-27T16:49:11.505Z,100868.19
2023-04-27T16:52:13.228Z,100875.31
2023-04-27T16:55:14.741Z,100871.44
2023-04-27T16:58:16.307Z,100879.44
2023-04-27T17:01:17.807Z,100873.00
2023-04-27T17:04:19.499Z,100878.28
2023-04-27T17:07:21.304Z,100878.97
2023-04-27T17:10:23.041Z,100866.13
2023-04-27T17:13:24.954Z,100857.84
2023-04-27T17:16:26.990Z,100857.69
2023-04-27T17:19:28.681Z,100861.97
2023-04-27T17:22:30.204Z,100848.41
2023-04-27T17:25:31.703Z,100848.16
2023-04-27T17:28:34.391Z,100847.97
2023-04-27T17:31:35.941Z,100848.81
2023-04-27T17:34:42.515Z,100844.97
2023-04-27T17:37:44.558Z,100843.13
2023-04-27T17:40:46.797Z,100846.50
2023-04-27T17:43:49.861Z,100850.97
2023-04-27T17:46:52.018Z,100845.34
2023-04-27T17:49:53.585Z,100849.81
2023-04-27T17:52:55.107Z,100850.66
2023-04-27T17:55:56.665Z,100838.09
2023-04-27T17:58:58.185Z,100835.94
2023-04-27T18:01:59.716Z,100834.06
2023-04-27T18:05:01.247Z,100835.78
2023-04-27T18:08:02.744Z,100832.19
2023-04-27T18:11:04.308Z,100825.78
2023-04-27T18:14:05.980Z,100829.22
2023-04-27T18:17:07.470Z,100825.47
2023-04-27T18:20:10.415Z,100827.16
2023-04-27T18:23:12.345Z,100819.91
2023-04-27T18:26:13.917Z,100826.19
2023-04-27T18:29:15.803Z,100826.00
2023-04-27T18:32:17.473Z,100832.31
2023-04-27T18:35:18.929Z,100826.88
2023-04-27T18:38:20.519Z,100827.56
2023-04-27T18:41:22.011Z,100841.13
2023-04-27T18:44:23.500Z,100836.59
2023-04-27T18:47:25.524Z,100838.28
2023-04-27T18:50:27.160Z,100842.88
2023-04-27T18:53:28.763Z,100839.31
2023-04-27T18:56:31.384Z,100833.00
2023-04-27T18:59:32.893Z,100841.31
2023-04-27T19:02:35.055Z,100839.44
2023-04-27T19:05:39.859Z,100838.59
2023-04-27T19:08:41.907Z,100835.03
2023-04-27T19:11:44.476Z,100833.31
2023-04-27T19:14:46.183Z,100833.47
2023-04-27T19:17:52.650Z,100831.59
2023-04-27T19:20:59.984Z,100832.59
2023-04-27T19:24:01.600Z,100829.88
2023-04-27T19:27:04.005Z,100826.31
2023-04-27T19:30:06.809Z,100829.03
2023-04-27T19:33:08.408Z,100819.19
2023-04-27T19:36:09.922Z,100818.50
2023-04-27T19:39:13.337Z,100822.91
2023-04-27T19:42:17.907Z,100821.19
2023-04-27T19:45:19.490Z,100825.78
2023-04-27T19:48:20.967Z,100825.78
2023-04-27T19:51:23.218Z,100825.78
2023-04-27T19:54:24.696Z,100830.50
2023-04-27T19:57:26.648Z,100832.38
2023-04-27T20:00:29.276Z,100830.50
2023-04-27T20:03:31.045Z,100828.94
2023-04-27T20:06:33.224Z,100831.66
2023-04-27T20:09:34.745Z,100833.53
2023-04-27T20:15:40.668Z,100830.09
2023-04-27T20:18:45.021Z,100825.69
2023-04-27T20:21:46.605Z,100830.22
2023-04-27T20:24:48.134Z,100830.41
2023-04-27T20:27:49.604Z,100832.28
2023-04-27T20:30:51.059Z,100832.41
2023-04-27T20:33:52.600Z,100826.97
2023-04-27T20:36:54.168Z,100828.97
2023-04-27T20:39:55.805Z,100826.28
2023-04-27T20:42:57.441Z,100817.28
2023-04-27T20:45:58.937Z,100814.72
2023-04-27T20:49:00.586Z,100813.00
2023-04-27T20:52:02.225Z,100814.03
2023-04-27T20:55:04.884Z,100809.47
2023-04-27T20:58:06.659Z,100813.16
2023-04-27T21:01:08.258Z,100799.75
2023-04-27T21:04:09.850Z,100799.75
2023-04-27T21:07:11.421Z,100794.44
2023-04-27T21:10:13.202Z,100800.72
2023-04-27T21:13:14.670Z,100807.16
2023-04-27T21:16:16.210Z,100796.44
2023-04-27T21:19:18.084Z,100806.44
2023-04-27T21:22:19.679Z,100803.72
2023-04-27T21:25:23.517Z,100798.47
2023-04-27T21:28:25.433Z,100794.03
2023-04-27T21:31:26.914Z,100789.63
2023-04-27T21:34:28.460Z,100786.06
2023-04-27T21:37:30.418Z,100782.47
2023-04-27T21:40:31.919Z,100778.06
2023-04-27T21:43:33.509Z,100777.22
2023-04-27T21:46:35.024Z,100780.91
2023-04-27T21:49:36.546Z,100774.66
2023-04-27T21:52:38.171Z,100772.09
2023-04-27T21:55:39.660Z,100767.66
2023-04-27T21:58:41.216Z,100764.09
2023-04-27T22:01:42.810Z,100762.41
2023-04-27T22:04:45.183Z,100763.41
2023-04-27T22:07:47.841Z,100768.69
2023-04-27T22:10:49.297Z,100766.97
2023-04-27T22:13:51.198Z,100759.84
2023-04-27T22:16:52.699Z,100748.13
2023-04-27T22:19:54.700Z,100749.28
2023-04-27T22:22:56.639Z,100747.44
2023-04-27T22:25:58.180Z,100743.69
2023-04-27T22:28:59.680Z,100742.16
2023-04-27T22:32:01.483Z,100725.88
2023-04-27T22:35:03.661Z,100723.34
2023-04-27T22:38:06.954Z,100721.47
2023-04-27T22:41:08.511Z,100708.03
2023-04-27T22:44:10.314Z,100703.66
2023-04-27T22:47:12.196Z,100709.06
2023-04-27T22:50:13.862Z,100703.66
2023-04-27T22:53:15.893Z,100697.38
2023-04-27T22:56:17.448Z,100694.81
2023-04-27T22:59:23.050Z,100699.38
2023-04-27T23:02:24.631Z,100695.81
2023-04-27T23:05:26.449Z,100692.25
2023-04-27T23:08:28.709Z,100697.69
2023-04-27T23:11:30.201Z,100693.25
2023-04-27T23:14:33.293Z,100693.25
2023-04-27T23:17:34.894Z,100692.41
2023-04-27T23:20:36.479Z,100688.00
2023-04-27T23:23:38.008Z,100679.84
2023-04-27T23:26:39.616Z,100685.28
2023-04-27T23:29:41.541Z,100680.00
2023-04-27T23:32:43.173Z,100677.28
2023-04-27T23:35:44.646Z,100676.44
2023-04-27T23:38:46.101Z,100672.88
2023-04-27T23:41:47.562Z,100660.31
2023-04-27T23:44:49.031Z,100661.16
2023-04-27T23:47:50.739Z,100657.59
2023-04-27T23:50:59.569Z,100653.03
2023-04-27T23:54:01.036Z,100646.94
2023-04-27T23:57:04.063Z,100644.22
